createdAt,value
2023-02-19T00:03:07.724Z,11.09
2023-02-19T00:08:09.322Z,11.04
2023-02-19T00:13:10.988Z,11.06
2023-02-19T00:18:15.104Z,11.09
2023-02-19T00:23:16.688Z,11.00
2023-02-19T00:28:18.328Z,11.01
2023-02-19T00:33:19.991Z,11.10
2023-02-19T00:38:21.677Z,11.03
2023-02-19T00:43:23.300Z,11.10
2023-02-19T00:48:24.876Z,11.08
2023-02-19T00:53:26.862Z,10.92
2023-02-19T00:58:28.560Z,11.02
2023-02-19T01:03:30.249Z,11.04
2023-02-19T01:08:33.098Z,11.02
2023-02-19T01:13:36.549Z,10.97
2023-02-19T01:18:38.539Z,10.87
2023-02-19T01:23:40.548Z,10.70
2023-02-19T01:28:42.688Z,10.74
2023-02-19T01:33:46.587Z,10.71
2023-02-19T01:38:51.426Z,10.61
2023-02-19T01:44:12.203Z,10.71
2023-02-19T01:49:18.632Z,10.81
2023-02-19T01:54:23.893Z,10.66
2023-02-19T01:59:28.263Z,10.67
2023-02-19T02:04:32.043Z,10.60
2023-02-19T02:09:52.216Z,10.59
2023-02-19T02:14:53.728Z,10.56
2023-02-19T02:20:18.987Z,10.78
2023-02-19T02:25:59.242Z,10.63
2023-02-19T02:31:14.122Z,10.61
2023-02-19T02:36:27.654Z,10.60
2023-02-19T02:41:29.766Z,10.68
2023-02-19T02:46:36.857Z,10.69
2023-02-19T02:51:44.102Z,10.65
2023-02-19T02:56:52.822Z,10.73
2023-02-19T03:02:11.782Z,10.63
2023-02-19T03:07:13.655Z,10.69
2023-02-19T03:12:37.570Z,10.71
2023-02-19T03:18:05.195Z,10.60
2023-02-19T03:23:09.153Z,10.60
2023-02-19T03:28:13.852Z,10.54
2023-02-19T03:33:25.088Z,10.52
2023-02-19T03:38:55.020Z,10.55
2023-02-19T03:44:12.577Z,10.59
2023-02-19T03:49:42.517Z,10.57
2023-02-19T03:55:06.353Z,10.51
2023-02-19T04:00:16.951Z,10.60
2023-02-19T04:05:26.421Z,10.56
2023-02-19T04:10:30.079Z,10.65
2023-02-19T04:15:37.168Z,10.47
2023-02-19T04:20:42.260Z,10.58
2023-02-19T04:25:47.436Z,10.54
2023-02-19T04:30:49.098Z,10.46
2023-02-19T04:35:50.726Z,10.55
2023-02-19T04:40:52.341Z,10.48
2023-02-19T04:45:53.944Z,10.48
2023-02-19T04:50:55.988Z,10.37
2023-02-19T04:55:57.497Z,10.52
2023-02-19T05:01:00.266Z,10.40
2023-02-19T05:06:06.729Z,10.24
2023-02-19T05:11:11.635Z,10.36
2023-02-19T05:16:16.156Z,10.45
2023-02-19T05:21:19.132Z,10.58
2023-02-19T05:26:23.264Z,10.50
2023-02-19T05:31:25.333Z,10.38
2023-02-19T05:36:28.041Z,10.32
2023-02-19T05:41:30.910Z,10.21
2023-02-19T05:46:32.704Z,10.19
2023-02-19T05:51:34.252Z,10.22
2023-02-19T05:56:39.021Z,10.34
2023-02-19T06:01:40.568Z,10.38
2023-02-19T06:06:43.067Z,10.46
2023-02-19T06:11:44.922Z,10.21
2023-02-19T06:16:46.501Z,10.52
2023-02-19T06:21:50.795Z,10.41
2023-02-19T06:26:52.538Z,10.29
2023-02-19T06:31:54.142Z,10.48
2023-02-19T06:36:57.690Z,10.26
2023-02-19T06:41:59.446Z,10.31
2023-02-19T06:47:01.068Z,10.31
2023-02-19T06:52:06.387Z,10.26
2023-02-19T06:57:08.181Z,10.24
2023-02-19T07:02:12.086Z,10.25
2023-02-19T07:07:13.684Z,10.12
2023-02-19T07:12:15.275Z,10.21
2023-02-19T07:17:16.884Z,10.34
2023-02-19T07:22:18.458Z,10.34
2023-02-19T07:27:19.968Z,10.54
2023-02-19T07:32:21.488Z,10.43
2023-02-19T07:37:23.046Z,10.42
2023-02-19T07:42:24.681Z,10.26
2023-02-19T07:47:26.205Z,10.27
2023-02-19T07:52:28.300Z,10.15
2023-02-19T07:57:31.289Z,10.12
2023-02-19T08:02:51.540Z,10.14
2023-02-19T08:07:53.251Z,10.42
2023-02-19T08:13:18.022Z,10.35
2023-02-19T08:18:24.962Z,10.31
2023-02-19T08:23:27.829Z,10.14
2023-02-19T08:28:30.471Z,10.41
2023-02-19T08:33:32.679Z,10.42
2023-02-19T08:38:36.019Z,10.07
2023-02-19T08:43:50.927Z,10.45
2023-02-19T08:49:01.995Z,10.34
2023-02-19T08:54:04.377Z,10.20
2023-02-19T08:59:05.998Z,10.11
2023-02-19T09:04:10.107Z,10.04
2023-02-19T09:09:11.761Z,10.03
2023-02-19T09:14:13.364Z,10.19
2023-02-19T09:19:14.995Z,10.37
2023-02-19T09:24:16.633Z,10.36
2023-02-19T09:29:18.537Z,10.30
2023-02-19T09:34:22.346Z,10.23
2023-02-19T09:39:23.934Z,10.28
2023-02-19T09:44:32.891Z,10.38
2023-02-19T09:49:37.693Z,9.97
2023-02-19T09:54:40.668Z,8.77
2023-02-19T09:59:48.520Z,8.94
2023-02-19T10:04:51.413Z,8.68
2023-02-19T10:10:03.510Z,8.87
2023-02-19T10:15:18.005Z,9.03
2023-02-19T10:20:24.709Z,8.92
2023-02-19T10:25:26.785Z,8.64
2023-02-19T10:30:31.920Z,8.62
2023-02-19T10:35:37.401Z,8.83
2023-02-19T10:40:45.510Z,8.73
2023-02-19T10:45:49.301Z,9.33
2023-02-19T10:50:58.272Z,9.01
2023-02-19T10:56:09.298Z,9.15
2023-02-19T11:01:20.690Z,8.72
2023-02-19T11:06:26.478Z,8.97
2023-02-19T11:11:34.879Z,8.81
2023-02-19T11:16:40.870Z,8.83
2023-02-19T11:21:42.402Z,8.73
2023-02-19T11:26:45.050Z,8.39
2023-02-19T11:31:46.647Z,8.73
2023-02-19T11:37:08.266Z,8.31
2023-02-19T11:42:15.242Z,8.42
2023-02-19T11:47:25.943Z,8.77
2023-02-19T11:53:00.385Z,8.65
2023-02-19T11:58:33.050Z,8.55
2023-02-19T12:03:49.986Z,8.73
2023-02-19T12:09:03.399Z,9.14
2023-02-19T12:14:38.369Z,8.45
2023-02-19T12:19:59.302Z,9.11
2023-02-19T12:25:39.742Z,8.50
2023-02-19T12:31:28.894Z,8.48
2023-02-19T12:36:50.837Z,8.63
2023-02-19T12:42:09.583Z,8.70
2023-02-19T12:47:21.276Z,8.24
2023-02-19T12:52:28.238Z,9.00
2023-02-19T12:57:37.091Z,8.59
2023-02-19T13:02:45.048Z,8.50
2023-02-19T13:07:55.840Z,8.50
2023-02-19T13:13:01.589Z,8.43
2023-02-19T13:18:07.597Z,9.35
2023-02-19T13:23:46.829Z,8.89
2023-02-19T13:29:07.043Z,9.11
2023-02-19T13:34:29.830Z,8.65
2023-02-19T13:39:31.782Z,8.73
2023-02-19T13:44:34.486Z,8.68
2023-02-19T13:49:42.078Z,8.47
2023-02-19T13:54:43.760Z,8.49
2023-02-19T13:59:46.375Z,8.69
2023-02-19T14:04:55.600Z,8.56
2023-02-19T14:09:58.624Z,8.62
2023-02-19T14:15:40.603Z,8.32
2023-02-19T14:20:45.884Z,8.30
2023-02-19T14:25:58.289Z,8.45
2023-02-19T14:31:17.891Z,8.41
2023-02-19T14:36:45.203Z,8.33
2023-02-19T14:41:57.208Z,8.52
2023-02-19T14:47:32.201Z,8.56
2023-02-19T14:52:43.501Z,8.59
2023-02-19T14:57:47.891Z,8.78
2023-02-19T15:02:51.464Z,8.87
2023-02-19T15:07:56.845Z,8.76
2023-02-19T15:13:01.380Z,9.30
2023-02-19T15:18:05.141Z,9.06
2023-02-19T15:23:07.944Z,8.93
2023-02-19T15:28:30.604Z,8.94
2023-02-19T15:33:32.352Z,8.99
2023-02-19T15:38:34.436Z,8.72
2023-02-19T15:43:44.490Z,8.76
2023-02-19T15:48:56.731Z,8.36
2023-02-19T15:54:07.639Z,8.32
2023-02-19T15:59:40.349Z,8.59
2023-02-19T16:04:44.070Z,8.55
2023-02-19T16:09:45.622Z,8.40
2023-02-19T16:14:49.318Z,8.59
2023-02-19T16:19:59.978Z,8.66
2023-02-19T16:25:04.696Z,8.47
2023-02-19T16:30:29.437Z,8.31
2023-02-19T16:35:42.076Z,8.21
2023-02-19T16:40:50.852Z,8.04
2023-02-19T16:45:52.640Z,8.20
2023-02-19T16:50:54.602Z,8.37
2023-02-19T16:55:56.542Z,8.18
2023-02-19T17:01:01.880Z,8.20
2023-02-19T17:06:03.662Z,8.17
2023-02-19T17:11:10.691Z,8.22
2023-02-19T17:16:25.080Z,8.17
2023-02-19T17:21:29.237Z,8.13
2023-02-19T17:26:32.502Z,8.25
2023-02-19T17:31:34.321Z,8.12
2023-02-19T17:36:38.023Z,8.13
2023-02-19T17:41:39.697Z,8.16
2023-02-19T17:46:42.123Z,8.23
2023-02-19T17:51:43.742Z,8.26
2023-02-19T17:56:47.061Z,8.10
2023-02-19T18:01:48.628Z,8.12
2023-02-19T18:06:50.208Z,8.00
2023-02-19T18:11:51.715Z,7.97
2023-02-19T18:16:53.311Z,8.23
2023-02-19T18:21:54.822Z,8.15
2023-02-19T18:26:56.478Z,8.01
2023-02-19T18:31:58.321Z,8.04
2023-02-19T18:37:02.022Z,7.86
2023-02-19T18:42:03.750Z,8.03
2023-02-19T18:47:07.047Z,8.03
2023-02-19T18:52:08.563Z,7.90
2023-02-19T18:57:10.145Z,7.85
2023-02-19T19:02:12.390Z,8.00
2023-02-19T19:07:14.090Z,7.99
2023-02-19T19:12:16.154Z,7.92
2023-02-19T19:17:17.733Z,7.96
2023-02-19T19:22:22.769Z,7.83
2023-02-19T19:27:24.298Z,7.76
2023-02-19T19:32:25.914Z,7.63
2023-02-19T19:37:29.256Z,7.82
2023-02-19T19:42:30.917Z,7.69
2023-02-19T19:47:32.560Z,7.76
2023-02-19T19:52:34.152Z,7.67
2023-02-19T19:57:35.773Z,7.66
2023-02-19T20:02:37.313Z,7.51
2023-02-19T20:07:39.208Z,7.59
2023-02-19T20:12:40.759Z,7.44
2023-02-19T20:17:42.513Z,7.21
2023-02-19T20:22:44.388Z,7.18
2023-02-19T20:27:49.960Z,6.88
2023-02-19T20:32:51.811Z,6.74
2023-02-19T20:37:54.503Z,6.61
2023-02-19T20:42:56.764Z,6.68
2023-02-19T20:47:58.443Z,6.57
2023-02-19T20:53:00.157Z,6.44
2023-02-19T20:58:02.040Z,6.38
2023-02-19T21:03:04.016Z,6.34
2023-02-19T21:08:05.597Z,6.35
2023-02-19T21:13:07.116Z,6.37
2023-02-19T21:18:08.737Z,6.23
2023-02-19T21:23:10.386Z,6.22
2023-02-19T21:28:12.596Z,6.41
2023-02-19T21:33:14.794Z,6.22
2023-02-19T21:38:16.471Z,6.07
2023-02-19T21:43:18.061Z,6.15
2023-02-19T21:48:19.639Z,6.19
2023-02-19T21:53:21.264Z,6.16
2023-02-19T21:58:23.140Z,6.22
2023-02-19T22:03:26.464Z,5.87
2023-02-19T22:08:27.994Z,5.75
2023-02-19T22:13:29.681Z,5.90
2023-02-19T22:18:31.230Z,5.80
2023-02-19T22:23:32.991Z,5.75
2023-02-19T22:28:34.484Z,5.51
2023-02-19T22:33:36.156Z,5.44
2023-02-19T22:38:37.704Z,5.37
2023-02-19T22:43:39.298Z,5.12
2023-02-19T22:48:40.998Z,4.81
2023-02-19T22:53:46.823Z,4.90
2023-02-19T22:58:48.632Z,4.78
2023-02-19T23:03:50.148Z,5.02
2023-02-19T23:08:53.428Z,4.72
2023-02-19T23:13:55.190Z,5.22
2023-02-19T23:18:56.856Z,5.32
2023-02-19T23:23:58.789Z,5.48
2023-02-19T23:29:00.770Z,5.62
2023-02-19T23:34:02.432Z,5.58
2023-02-19T23:39:04.238Z,5.77
2023-02-19T23:44:06.021Z,5.59
2023-02-19T23:49:07.611Z,5.64
2023-02-19T23:54:09.267Z,5.81
2023-02-19T23:59:10.832Z,5.79
